This is the latest recevied weather packets stored in our database for station/object VU2EXP-13. If no packets are shown the sender has not sent any weather packets the latest 10 day(s).
| Time | Temp. | Humidity | Pressure | Rain* | Wind** | Luminosity | Snow |
|---|---|---|---|---|---|---|---|
| 1787579682 | 28.89° C | 71% | 990 hPa | - | - | - | - |
| 1787578782 | 29.44° C | 70% | 989.9 hPa | - | - | - | - |
| 1787577884 | 29.44° C | 70% | 989.8 hPa | - | - | - | - |
| 1787576982 | 29.44° C | 70% | 989.6 hPa | - | - | - | - |
| 1787576082 | 29.44° C | 70% | 989.5 hPa | - | - | - | - |
| 1787575182 | 29.44° C | 70% | 989.3 hPa | - | - | - | - |
| 1787574282 | 29.44° C | 70% | 989.3 hPa | - | - | - | - |
| 1787573381 | 29.44° C | 71% | 989.3 hPa | - | - | - | - |
| 1787572481 | 29.44° C | 71% | 989.2 hPa | - | - | - | - |
| 1787571581 | 29.44° C | 70% | 989.2 hPa | - | - | - | - |
| 1787570681 | 29.44° C | 69% | 989.3 hPa | - | - | - | - |
| 1787569781 | 30° C | 66% | 989.4 hPa | - | - | - | - |
| 1787568880 | 30.56° C | 62% | 989.2 hPa | - | - | - | - |
| 1787567981 | 30.56° C | 62% | 989.3 hPa | - | - | - | - |
| 1787567080 | 30.56° C | 63% | 989.2 hPa | - | - | - | - |
| 1787566180 | 30.56° C | 63% | 989.3 hPa | - | - | - | - |
| 1787565280 | 30.56° C | 64% | 989.4 hPa | - | - | - | - |
| 1787564380 | 30° C | 65% | 989.7 hPa | - | - | - | - |
| 1787563480 | 30° C | 67% | 989.8 hPa | - | - | - | - |
| 1787562580 | 30° C | 65% | 989.9 hPa | - | - | - | - |
| 1787561805 | 31.11° C | 60% | 989.8 hPa | - | - | - | - |
| 1787560780 | 31.67° C | 59% | 989.9 hPa | - | - | - | - |
| 1787559880 | 31.67° C | 59% | 990 hPa | - | - | - | - |
| 1787558979 | 31.67° C | 59% | 990.1 hPa | - | - | - | - |
| 1787558079 | 31.67° C | 59% | 990.3 hPa | - | - | - | - |
* Rain since midnight (hover to see other rain measurements)
** Current wind speed in m/s (hover to see current wind gust speed)